Time;durP1;ratioP1;P1;durP2;ratioP2;P2;SDS_P1;SDS_P2;PMS_P1;PMS_P2;Temp;Humidity;BMP_temperature;BMP_pressure;BME280_temperature;BME280_humidity;BME280_pressure;Samples;Min_cycle;Max_cycle;Signal;HPM_P1;HPM_P2
2021/03/22 00:00:51;;;;;;;15.77;8.07;;;;;;;12.03;50.07;100913.94;5015646;28;20119;-66
2021/03/22 00:03:20;;;;;;;16.23;8.53;;;;;;;11.97;50.27;100892.72;5012831;28;20536;-66
2021/03/22 00:05:47;;;;;;;16.23;7.47;;;;;;;11.97;50.11;100887.13;5013859;28;20054;-65
2021/03/22 00:08:16;;;;;;;13.03;7.43;;;;;;;12.00;50.08;100890.19;5006280;28;20054;-64
2021/03/22 00:10:45;;;;;;;12.50;6.93;;;;;;;12.10;49.72;100889.31;5006958;28;20054;-65
2021/03/22 00:13:14;;;;;;;12.53;6.70;;;;;;;12.07;49.91;100887.09;5011089;28;20056;-66
2021/03/22 00:15:42;;;;;;;16.00;8.03;;;;;;;11.96;50.41;100897.44;5001393;28;20046;-64
2021/03/22 00:18:13;;;;;;;13.73;7.80;;;;;;;11.91;50.16;100888.22;5006632;28;20447;-64
2021/03/22 00:20:46;;;;;;;12.73;7.10;;;;;;;12.01;49.84;100877.88;5000682;28;20042;-64
2021/03/22 00:23:15;;;;;;;13.90;7.50;;;;;;;12.09;49.78;100880.06;4990543;28;20490;-65
2021/03/22 00:25:41;;;;;;;14.98;9.35;;;;;;;12.06;49.32;100869.44;5002784;28;20418;-64
2021/03/22 00:28:09;;;;;;;16.60;8.43;;;;;;;12.08;49.46;100870.00;5007658;28;20137;-63
2021/03/22 00:30:41;;;;;;;15.07;8.30;;;;;;;12.14;49.31;100881.22;5010969;28;20046;-64
2021/03/22 00:33:08;;;;;;;12.47;7.97;;;;;;;12.06;49.37;100861.03;5001319;28;20045;-64
2021/03/22 00:35:36;;;;;;;8.47;6.17;;;;;;;12.22;49.04;100883.41;5005832;28;20556;-63
2021/03/22 00:38:05;;;;;;;10.43;5.77;;;;;;;12.12;49.16;100880.66;5010926;28;20052;-63
2021/03/22 00:40:33;;;;;;;12.30;7.00;;;;;;;12.09;49.10;100879.25;5010217;28;20041;-63
2021/03/22 00:43:00;;;;;;;15.47;7.83;;;;;;;12.18;48.98;100885.13;5006070;28;20091;-63
2021/03/22 00:45:32;;;;;;;11.73;6.83;;;;;;;12.06;49.10;100880.63;5006386;28;20053;-63
2021/03/22 00:48:03;;;;;;;15.93;6.10;;;;;;;11.97;49.38;100873.97;5004505;28;20068;-62
2021/03/22 00:50:33;;;;;;;12.03;6.10;;;;;;;11.91;49.40;100877.88;5003204;28;20414;-63
2021/03/22 00:53:04;;;;;;;10.50;6.57;;;;;;;11.75;49.72;100870.56;5003984;28;20579;-65
2021/03/22 00:55:31;;;;;;;13.63;6.30;;;;;;;11.63;50.07;100871.72;4996726;28;20392;-66
2021/03/22 00:57:57;;;;;;;10.90;5.07;;;;;;;11.42;50.38;100864.44;5005337;28;20054;-65
2021/03/22 01:00:33;;;;;;;8.33;4.90;;;;;;;11.22;51.20;100858.81;5006087;28;20053;-65
2021/03/22 01:03:00;;;;;;;13.43;4.77;;;;;;;11.16;51.70;100885.91;4998966;28;20078;-63
2021/03/22 01:05:29;;;;;;;8.07;3.67;;;;;;;11.01;52.11;100881.16;5009133;28;20045;-64
2021/03/22 01:07:56;;;;;;;11.13;5.53;;;;;;;10.92;52.47;100871.59;5006933;28;20072;-64
2021/03/22 01:10:43;;;;;;;12.50;5.57;;;;;;;10.86;52.76;100872.69;5002455;28;20061;-64
2021/03/22 01:13:17;;;;;;;12.03;6.20;;;;;;;10.82;52.78;100860.41;5013430;28;20056;-65
2021/03/22 01:15:44;;;;;;;9.63;6.03;;;;;;;10.86;52.60;100851.19;5003447;28;20054;-69
2021/03/22 01:18:12;;;;;;;9.27;5.20;;;;;;;10.89;52.73;100863.78;5005556;28;20042;-65
2021/03/22 01:20:43;;;;;;;8.60;5.87;;;;;;;10.95;52.52;100865.47;5008109;28;20065;-65
2021/03/22 01:23:11;;;;;;;11.33;5.77;;;;;;;11.08;52.16;100859.34;5008065;28;20129;-65
2021/03/22 01:25:38;;;;;;;8.70;5.03;;;;;;;11.23;51.93;100863.28;5016881;28;20045;-65
2021/03/22 01:28:05;;;;;;;8.70;5.23;;;;;;;11.32;51.59;100853.25;5001551;28;20478;-66
2021/03/22 01:30:42;;;;;;;11.70;5.87;;;;;;;11.23;51.74;100850.16;5008841;28;20045;-66
2021/03/22 01:33:12;;;;;;;7.00;5.37;;;;;;;11.43;51.22;100852.13;5003315;28;20050;-64
2021/03/22 01:35:38;;;;;;;13.43;6.07;;;;;;;11.44;51.17;100847.38;5003614;28;20046;-64
2021/03/22 01:38:06;;;;;;;12.50;6.83;;;;;;;11.42;51.20;100841.19;5006410;28;20138;-64
2021/03/22 01:41:05;;;;;;;9.77;6.27;;;;;;;11.46;51.18;100840.38;5004960;28;20045;-63
2021/03/22 01:44:02;;;;;;;8.67;5.33;;;;;;;11.49;50.89;100847.38;5003304;28;20053;-63
2021/03/22 01:46:38;;;;;;;9.73;6.47;;;;;;;11.32;51.28;100842.06;5005917;28;20986;-64
2021/03/22 01:49:06;;;;;;;10.40;5.00;;;;;;;11.21;52.03;100852.38;4999973;28;20124;-64
2021/03/22 01:51:34;;;;;;;9.53;6.33;;;;;;;10.96;52.19;100829.97;5009315;28;20046;-62
2021/03/22 01:54:02;;;;;;;3.57;3.20;;;;;;;10.85;52.63;100840.31;5011903;28;20053;-62
2021/03/22 01:56:49;;;;;;;8.70;3.40;;;;;;;10.68;53.44;100844.16;5004238;28;20101;-63
2021/03/22 01:59:20;;;;;;;15.30;5.27;;;;;;;10.73;53.18;100845.28;5002540;28;20043;-64
2021/03/22 02:01:53;;;;;;;8.27;4.00;;;;;;;10.72;53.47;100849.19;4994631;28;20050;-63
2021/03/22 02:04:20;;;;;;;9.40;3.87;;;;;;;10.71;53.66;100853.13;5010401;28;20042;-63
2021/03/22 02:06:48;;;;;;;7.40;3.30;;;;;;;10.66;53.80;100851.97;5010240;28;20057;-66
2021/03/22 02:09:15;;;;;;;4.90;3.33;;;;;;;10.59;53.98;100840.19;5002073;28;20049;-66
2021/03/22 02:11:42;;;;;;;5.17;3.20;;;;;;;10.66;54.02;100856.72;5008091;28;20053;-68
2021/03/22 02:14:10;;;;;;;5.97;3.03;;;;;;;10.63;54.28;100846.09;5003542;28;20061;-66
2021/03/22 02:16:48;;;;;;;3.47;2.63;;;;;;;10.36;54.74;100829.53;5009108;28;20072;-65
2021/03/22 02:19:53;;;;;;;6.03;2.83;;;;;;;10.44;54.78;100849.38;4999247;28;20482;-67
2021/03/22 02:22:43;;;;;;;6.97;4.20;;;;;;;10.36;55.04;100858.28;5001450;28;20049;-65
2021/03/22 02:25:24;;;;;;;8.97;3.07;;;;;;;10.32;55.08;100859.06;4993235;28;20105;-64
2021/03/22 02:28:07;;;;;;;3.07;2.50;;;;;;;10.31;54.95;100854.63;5003101;28;20054;-65
2021/03/22 02:30:49;;;;;;;4.43;3.37;;;;;;;10.35;54.65;100850.16;5004179;28;20049;-65
2021/03/22 02:33:38;;;;;;;4.83;3.03;;;;;;;10.27;54.71;100843.16;4998133;28;20038;-61
2021/03/22 02:36:20;;;;;;;5.87;3.13;;;;;;;10.24;54.77;100842.81;5004034;28;20140;-62
2021/03/22 02:38:54;;;;;;;3.27;2.97;;;;;;;10.12;54.63;100824.34;5000048;28;20302;-60
2021/03/22 02:41:24;;;;;;;10.23;3.20;;;;;;;10.31;54.33;100830.31;5004761;28;20053;-61
2021/03/22 02:44:09;;;;;;;3.43;2.43;;;;;;;10.29;54.25;100826.13;4997112;28;20154;-62
2021/03/22 02:46:39;;;;;;;2.07;1.80;;;;;;;10.28;53.93;100828.06;5001968;28;20054;-62
2021/03/22 02:49:13;;;;;;;;;;;;;;;10.17;53.99;100831.91;5002642;28;20042;-61
2021/03/22 02:52:05;;;;;;;1.17;0.90;;;;;;;10.31;53.62;100827.53;4995761;28;19921;-64
2021/03/22 02:54:55;;;;;;;2.63;1.80;;;;;;;10.43;53.13;100818.94;4991228;28;20165;-63
2021/03/22 02:57:45;;;;;;;2.58;2.20;;;;;;;10.51;52.63;100826.78;5003912;28;20050;-63
2021/03/22 03:00:18;;;;;;;2.20;1.60;;;;;;;10.60;52.25;100815.94;5001093;28;20057;-61
2021/03/22 03:02:53;;;;;;;1.20;1.10;;;;;;;10.69;51.90;100819.84;5006213;28;20046;-62
2021/03/22 03:05:25;;;;;;;4.28;2.50;;;;;;;10.63;51.80;100809.78;5006208;28;20133;-62
2021/03/22 03:07:57;;;;;;;4.87;2.90;;;;;;;10.68;51.69;100807.84;5007269;28;20351;-62
2021/03/22 03:10:24;;;;;;;2.07;1.57;;;;;;;10.75;51.41;100809.53;4991947;28;20093;-62
2021/03/22 03:12:50;;;;;;;7.37;3.47;;;;;;;10.69;51.42;100811.47;5006745;28;20061;-61
2021/03/22 03:15:18;;;;;;;3.60;2.10;;;;;;;10.71;51.35;100805.63;5004359;28;20053;-62
2021/03/22 03:17:49;;;;;;;4.75;1.40;;;;;;;10.71;51.19;100802.84;5009370;28;20501;-63
2021/03/22 03:20:27;;;;;;;3.07;2.03;;;;;;;10.70;51.14;100809.50;5011362;28;20061;-62
2021/03/22 03:22:55;;;;;;;7.20;2.07;;;;;;;10.73;51.10;100812.59;4999218;28;20128;-62
2021/03/22 03:25:28;;;;;;;1.77;1.67;;;;;;;10.66;50.77;100784.94;5007789;28;20045;-62
2021/03/22 03:27:55;;;;;;;8.40;3.43;;;;;;;10.82;50.65;100815.69;5004721;28;20050;-62
2021/03/22 03:30:27;;;;;;;3.17;2.17;;;;;;;10.76;50.49;100797.25;4998548;28;20054;-64
2021/03/22 03:32:56;;;;;;;2.47;1.73;;;;;;;10.83;50.47;100807.03;5010281;28;20046;-62
2021/03/22 03:35:28;;;;;;;2.67;2.10;;;;;;;10.75;50.51;100807.59;5017110;28;20050;-63
2021/03/22 03:37:55;;;;;;;4.37;2.07;;;;;;;10.77;50.44;100810.09;5007419;28;20054;-62
2021/03/22 03:40:29;;;;;;;3.30;2.20;;;;;;;10.69;50.32;100805.88;5004364;28;20050;-66
2021/03/22 03:42:56;;;;;;;4.77;1.53;;;;;;;10.72;50.58;100810.09;5004156;28;20077;-65
2021/03/22 03:45:24;;;;;;;2.40;1.97;;;;;;;10.64;50.60;100798.34;5007529;28;20160;-65
2021/03/22 03:48:09;;;;;;;2.93;2.23;;;;;;;10.74;50.49;100814.28;5004877;28;20050;-64
2021/03/22 03:50:36;;;;;;;2.70;2.23;;;;;;;10.74;50.24;100814.28;5006516;28;20045;-64
2021/03/22 03:53:03;;;;;;;4.87;2.97;;;;;;;10.76;50.34;100800.03;5004461;28;20409;-65
2021/03/22 03:55:33;;;;;;;1.40;1.27;;;;;;;10.76;50.17;100808.41;4999088;28;20046;-65
2021/03/22 03:57:59;;;;;;;3.53;1.33;;;;;;;10.80;50.11;100815.13;5003356;28;20050;-65
2021/03/22 04:00:32;;;;;;;3.70;2.23;;;;;;;10.76;50.07;100808.41;5008507;28;20049;-66
2021/03/22 04:03:23;;;;;;;4.73;2.17;;;;;;;10.79;49.89;100805.06;5004076;28;20042;-66
2021/03/22 04:06:04;;;;;;;1.83;1.27;;;;;;;10.72;49.86;100810.09;5004485;28;20081;-66
2021/03/22 04:08:32;;;;;;;1.30;1.10;;;;;;;10.75;50.16;100809.53;5000441;28;20050;-64
2021/03/22 04:11:02;;;;;;;4.03;1.90;;;;;;;10.77;49.91;100802.56;5010687;28;20095;-64
2021/03/22 04:13:32;;;;;;;1.55;1.15;;;;;;;10.72;50.09;100805.34;5006656;28;20053;-65
2021/03/22 04:15:59;;;;;;;3.13;1.80;;;;;;;10.62;50.11;100794.97;5004705;28;20168;-63
2021/03/22 04:18:34;;;;;;;3.23;2.37;;;;;;;10.75;49.89;100815.13;5003011;28;20046;-63
2021/03/22 04:21:02;;;;;;;5.47;2.43;;;;;;;10.78;49.93;100814.59;5010397;28;20077;-63
2021/03/22 04:23:28;;;;;;;5.00;2.20;;;;;;;10.78;49.79;100803.41;5010296;28;20051;-63
2021/03/22 04:25:55;;;;;;;1.03;0.93;;;;;;;10.78;49.82;100812.63;5009516;28;20116;-64
2021/03/22 04:28:21;;;;;;;1.13;1.00;;;;;;;10.64;49.61;100780.75;5001589;28;20038;-65
2021/03/22 04:30:47;;;;;;;2.70;1.67;;;;;;;10.83;49.51;100803.41;5002905;28;20419;-65
2021/03/22 04:33:13;;;;;;;3.30;1.67;;;;;;;10.83;49.52;100812.63;4987569;28;20471;-65
2021/03/22 04:35:43;;;;;;;2.43;1.00;;;;;;;10.82;49.38;100796.16;5002196;28;20165;-66
2021/03/22 04:38:09;;;;;;;1.90;1.00;;;;;;;10.88;49.37;100793.09;5000923;28;20042;-67
2021/03/22 04:40:36;;;;;;;1.67;1.17;;;;;;;10.89;49.30;100802.31;5009857;28;20041;-66
2021/03/22 04:43:03;;;;;;;4.40;2.60;;;;;;;10.89;49.04;100805.09;5009996;28;20507;-65
2021/03/22 04:45:32;;;;;;;3.53;1.75;;;;;;;10.94;49.11;100801.47;5007082;28;20054;-67
2021/03/22 04:47:58;;;;;;;0.80;0.80;;;;;;;10.84;48.95;100768.78;5009866;28;20061;-64
2021/03/22 04:50:27;;;;;;;1.63;1.37;;;;;;;10.92;49.09;100779.41;5006271;28;20125;-63
2021/03/22 04:52:54;;;;;;;3.90;1.63;;;;;;;10.90;49.06;100790.84;5007315;28;20046;-65
2021/03/22 04:55:24;;;;;;;1.20;1.10;;;;;;;10.86;49.23;100795.31;5007783;28;20058;-64
2021/03/22 04:57:54;;;;;;;1.57;1.40;;;;;;;10.99;48.88;100782.75;5010275;28;20121;-64
2021/03/22 05:00:36;;;;;;;0.73;0.70;;;;;;;10.86;48.91;100772.97;5007281;28;20046;-63
2021/03/22 05:03:12;;;;;;;1.93;1.40;;;;;;;10.90;49.08;100778.81;5004424;28;20167;-66
2021/03/22 05:05:39;;;;;;;2.50;1.27;;;;;;;10.85;48.80;100751.72;4997101;28;20049;-65
2021/03/22 05:08:11;;;;;;;1.17;0.90;;;;;;;10.98;48.78;100769.91;5003095;28;20069;-65
2021/03/22 05:10:49;;;;;;;0.77;0.73;;;;;;;10.95;48.78;100778.84;5000571;28;20050;-65
2021/03/22 05:13:18;;;;;;;1.83;1.37;;;;;;;10.97;48.77;100771.00;5010174;28;20047;-66
2021/03/22 05:15:47;;;;;;;2.90;1.93;;;;;;;10.96;48.74;100766.53;5004889;28;20109;-65
2021/03/22 05:18:15;;;;;;;2.80;1.83;;;;;;;10.96;48.79;100766.53;5005526;28;20042;-65
2021/03/22 05:20:54;;;;;;;2.10;1.93;;;;;;;10.98;48.67;100764.31;5014474;28;20643;-67
2021/03/22 05:23:24;;;;;;;2.00;1.60;;;;;;;11.06;48.29;100762.94;5017951;28;20438;-68
2021/03/22 05:25:55;;;;;;;1.27;1.23;;;;;;;10.89;48.47;100752.00;4993215;28;20053;-65
2021/03/22 05:28:24;;;;;;;2.27;1.47;;;;;;;11.07;48.21;100761.81;5004711;28;20053;-68
2021/03/22 05:30:54;;;;;;;8.23;1.90;;;;;;;11.14;47.92;100760.44;5010820;28;20112;-68
2021/03/22 05:33:22;;;;;;;2.57;1.73;;;;;;;11.06;48.12;100760.97;5004086;28;20050;-68
2021/03/22 05:35:53;;;;;;;0.43;0.43;;;;;;;11.02;48.36;100771.03;4996881;28;20065;-66
2021/03/22 05:38:25;;;;;;;1.85;1.52;;;;;;;11.01;48.33;100771.28;5005854;28;20046;-65
2021/03/22 05:41:00;;;;;;;2.47;1.27;;;;;;;11.00;48.29;100776.03;4998631;28;20050;-62
2021/03/22 05:43:42;;;;;;;1.77;1.67;;;;;;;11.00;48.12;100773.25;5004022;28;20490;-64
2021/03/22 05:46:14;;;;;;;2.80;1.60;;;;;;;11.05;48.14;100770.47;5003923;28;20043;-66
2021/03/22 05:49:18;;;;;;;2.80;1.80;;;;;;;11.04;48.14;100774.41;5008972;28;20049;-68
2021/03/22 05:51:47;;;;;;;1.60;1.17;;;;;;;11.03;47.99;100778.28;5008864;28;20053;-70
2021/03/22 05:54:19;;;;;;;1.92;1.30;;;;;;;11.09;47.86;100770.75;5011965;28;20042;-65
2021/03/22 05:57:14;;;;;;;3.37;2.10;;;;;;;11.13;47.79;100775.50;4991731;28;20136;-61
2021/03/22 05:59:44;;;;;;;1.30;0.90;;;;;;;11.09;47.94;100782.78;5000748;28;20054;-64
2021/03/22 06:02:34;;;;;;;2.20;1.42;;;;;;;10.98;47.99;100769.91;5008367;28;20104;-64
2021/03/22 06:05:13;;;;;;;1.30;1.10;;;;;;;11.12;47.57;100776.63;5010390;28;22417;-69
2021/03/22 06:07:49;;;;;;;5.40;2.50;;;;;;;11.10;47.61;100776.06;5013935;28;20116;-64
2021/03/22 06:10:20;;;;;;;2.83;1.40;;;;;;;11.12;47.66;100799.00;5015386;28;20468;-64
2021/03/22 06:13:00;;;;;;;3.53;1.63;;;;;;;11.15;47.63;100784.47;4995163;28;20136;-64
2021/03/22 06:15:42;;;;;;;0.67;0.60;;;;;;;11.17;47.33;100783.34;5010045;28;20042;-63
2021/03/22 06:18:12;;;;;;;1.70;1.17;;;;;;;11.13;47.43;100799.81;5013018;28;20509;-66
2021/03/22 06:20:41;;;;;;;;;;;;;;;11.12;47.47;100784.19;5005513;28;20140;-67
2021/03/22 06:23:42;;;;;;;4.63;1.20;;;;;;;11.10;47.61;100787.22;5012028;28;19925;-70
2021/03/22 06:26:32;;;;;;;1.03;0.93;;;;;;;11.02;47.82;100795.34;4943314;29;20611;-66
2021/03/22 06:29:14;;;;;;;1.07;1.07;;;;;;;10.86;47.93;100769.34;5002720;28;20050;-63
2021/03/22 06:31:42;;;;;;;1.80;0.77;;;;;;;10.83;47.87;100784.69;4990700;28;20087;-72
2021/03/22 06:34:13;;;;;;;3.70;0.90;;;;;;;10.93;48.09;100811.81;5008129;28;20045;-64
2021/03/22 06:36:41;;;;;;;1.80;1.70;;;;;;;11.00;47.79;100798.41;4997243;28;20060;-58
2021/03/22 06:39:10;;;;;;;2.67;1.27;;;;;;;11.03;47.70;100800.66;5009874;28;20052;-59
2021/03/22 06:41:50;;;;;;;3.35;1.45;;;;;;;10.96;48.02;100800.09;5008951;28;20046;-59
2021/03/22 06:44:19;;;;;;;3.00;1.30;;;;;;;10.88;47.96;100793.09;5010404;28;20054;-59
2021/03/22 06:46:56;;;;;;;1.10;1.00;;;;;;;10.80;48.10;100781.59;5007205;28;20100;-58
2021/03/22 06:49:45;;;;;;;2.37;1.87;;;;;;;10.88;48.03;100792.25;5006932;28;22067;-59
2021/03/22 06:52:22;;;;;;;1.87;1.20;;;;;;;10.85;48.11;100796.44;5009513;28;20129;-59
2021/03/22 06:54:52;;;;;;;2.47;2.03;;;;;;;10.94;47.61;100763.22;5001511;28;20057;-62
2021/03/22 06:57:27;;;;;;;1.57;0.87;;;;;;;11.17;47.40;100783.34;5001368;28;20041;-59
2021/03/22 07:00:19;;;;;;;0.97;0.97;;;;;;;11.16;47.20;100776.91;5002615;28;20050;-66
2021/03/22 07:03:26;;;;;;;2.77;1.60;;;;;;;11.43;46.93;100793.41;5004427;28;20050;-69
2021/03/22 07:05:52;;;;;;;11.50;1.33;;;;;;;11.43;46.74;100799.00;5002957;28;20130;-57
2021/03/22 07:08:37;;;;;;;2.20;1.43;;;;;;;11.47;46.59;100774.09;5001576;28;20165;-56
2021/03/22 07:11:12;;;;;;;1.37;1.23;;;;;;;11.69;46.22;100790.56;5008181;28;20454;-56
2021/03/22 07:14:10;;;;;;;1.00;0.90;;;;;;;11.82;45.99;100801.16;5007497;28;20108;-57
2021/03/22 07:16:39;;;;;;;3.20;1.43;;;;;;;11.89;45.84;100803.72;4997385;28;20054;-58
2021/03/22 07:19:16;;;;;;;3.35;1.27;;;;;;;12.05;45.37;100797.78;4998616;28;20051;-56
2021/03/22 07:21:48;;;;;;;0.70;0.70;;;;;;;12.27;45.04;100789.06;4995712;28;20403;-56
2021/03/22 07:24:38;;;;;;;2.90;2.10;;;;;;;12.37;44.75;100795.72;5003669;28;20052;-58
2021/03/22 07:27:14;;;;;;;3.07;2.30;;;;;;;12.50;44.34;100790.31;4973239;28;20050;-57
2021/03/22 07:30:17;;;;;;;5.00;2.43;;;;;;;12.77;44.04;100789.06;4998382;28;20050;-54
2021/03/22 07:32:48;;;;;;;3.70;1.80;;;;;;;12.90;43.74;100799.63;4948581;28;20057;-58
2021/03/22 07:35:43;;;;;;;2.10;1.67;;;;;;;13.21;43.25;100793.81;5009071;28;20041;-57
2021/03/22 07:38:16;;;;;;;1.93;1.50;;;;;;;13.55;42.72;100791.03;4998123;28;20049;-57
2021/03/22 07:40:51;;;;;;;1.53;1.43;;;;;;;13.65;42.34;100790.09;5004964;28;20153;-57
2021/03/22 07:43:35;;;;;;;1.77;1.33;;;;;;;13.84;42.22;100793.81;4999094;28;20053;-58
2021/03/22 07:46:27;;;;;;;2.30;1.47;;;;;;;13.92;41.49;100790.38;4999592;28;20054;-57
2021/03/22 07:48:59;;;;;;;1.13;1.03;;;;;;;14.13;41.28;100795.75;4999157;28;20100;-56
2021/03/22 07:51:50;;;;;;;5.32;2.33;;;;;;;14.23;40.91;100790.03;5000351;28;20054;-57
2021/03/22 07:54:44;;;;;;;1.40;1.20;;;;;;;14.26;40.45;100797.88;5001149;28;20045;-59
2021/03/22 07:57:18;;;;;;;3.97;1.67;;;;;;;14.16;40.34;100783.94;5003812;28;20050;-57
2021/03/22 07:59:50;;;;;;;1.80;1.27;;;;;;;14.39;40.29;100796.28;5007614;28;20426;-57
2021/03/22 08:02:38;;;;;;;3.37;1.73;;;;;;;14.58;40.00;100802.81;5000422;28;20608;-58
2021/03/22 08:05:42;;;;;;;2.50;1.67;;;;;;;15.05;39.21;100803.84;4998732;28;20108;-53
2021/03/22 08:08:29;;;;;;;3.97;1.10;;;;;;;15.64;39.01;100816.38;4998634;28;20046;-57
2021/03/22 08:11:01;;;;;;;;;;;;;;;15.68;38.04;100812.97;5010304;28;20525;-58
2021/03/22 08:13:46;;;;;;;2.87;1.80;;;;;;;15.67;37.72;100820.59;4998235;28;19940;-57
2021/03/22 08:16:16;;;;;;;1.10;0.93;;;;;;;15.73;37.51;100819.34;4994833;28;20384;-58
2021/03/22 08:18:52;;;;;;;2.03;1.42;;;;;;;15.93;37.27;100806.88;5000577;28;20069;-56
2021/03/22 08:21:45;;;;;;;1.33;1.23;;;;;;;15.72;36.75;100822.47;4994892;28;20380;-57
2021/03/22 08:24:39;;;;;;;1.73;1.13;;;;;;;15.65;37.03;100828.47;4995208;28;20443;-58
2021/03/22 08:27:08;;;;;;;2.73;1.83;;;;;;;15.93;36.65;100829.41;4995517;28;20054;-55
2021/03/22 08:29:38;;;;;;;0.88;0.80;;;;;;;16.10;36.29;100825.97;4995692;28;22047;-57
2021/03/22 08:32:26;;;;;;;1.38;1.13;;;;;;;16.14;36.06;100835.50;4996003;28;20185;-58
2021/03/22 08:35:16;;;;;;;1.67;1.20;;;;;;;16.25;35.88;100831.31;4994992;28;20078;-57
2021/03/22 08:37:56;;;;;;;1.67;0.77;;;;;;;16.16;36.03;100844.47;5000061;28;20056;-56
2021/03/22 08:40:59;;;;;;;1.57;1.00;;;;;;;16.32;35.60;100845.84;5008393;28;20042;-57
2021/03/22 08:43:49;;;;;;;3.58;1.92;;;;;;;16.67;35.45;100849.06;5011236;28;20054;-57
2021/03/22 08:46:39;;;;;;;3.03;1.90;;;;;;;17.15;34.94;100842.94;5001439;28;20046;-57
2021/03/22 08:49:36;;;;;;;2.50;1.53;;;;;;;17.39;34.26;100839.84;5012562;28;20421;-57
2021/03/22 08:52:03;;;;;;;1.30;1.20;;;;;;;17.80;34.01;100827.56;4995107;28;20045;-57
2021/03/22 08:54:33;;;;;;;1.70;1.60;;;;;;;18.19;33.54;100835.25;5000923;28;20046;-54
2021/03/22 08:57:07;;;;;;;3.60;2.20;;;;;;;18.27;33.32;100835.63;5003949;28;20057;-57
2021/03/22 08:59:35;;;;;;;1.57;1.40;;;;;;;18.44;32.92;100838.53;5003691;28;20103;-59
2021/03/22 09:02:27;;;;;;;4.32;1.85;;;;;;;18.62;32.71;100857.22;4991307;28;20065;-54
2021/03/22 09:04:54;;;;;;;3.77;1.07;;;;;;;18.70;32.44;100856.44;5008806;28;20157;-58
2021/03/22 09:07:35;;;;;;;3.67;1.92;;;;;;;18.71;32.91;100843.09;5001212;28;20077;-56
2021/03/22 09:10:39;;;;;;;4.10;1.60;;;;;;;19.43;32.29;100858.72;5008122;28;20391;-56
2021/03/22 09:13:25;;;;;;;2.05;1.40;;;;;;;19.59;31.40;100845.75;4957731;28;20466;-57
2021/03/22 09:16:33;;;;;;;5.13;1.73;;;;;;;19.93;31.28;100844.06;5008481;28;20042;-58
2021/03/22 09:19:13;;;;;;;5.75;2.45;;;;;;;20.37;31.03;100841.91;4996469;28;20457;-56
2021/03/22 09:21:54;;;;;;;3.10;1.70;;;;;;;20.88;30.64;100862.72;5005856;28;20538;-58
2021/03/22 09:27:24;;;;;;;3.55;1.33;;;;;;;20.91;29.33;100859.19;5002149;28;20054;-57
2021/03/22 09:30:04;;;;;;;2.60;1.52;;;;;;;20.73;29.80;100861.28;5012072;28;20072;-55
2021/03/22 09:32:32;;;;;;;2.47;1.73;;;;;;;20.95;29.78;100882.88;5001301;28;20042;-58
2021/03/22 09:35:15;;;;;;;4.57;1.60;;;;;;;21.23;29.28;100869.00;5004655;28;20038;-57
2021/03/22 09:37:48;;;;;;;5.93;1.83;;;;;;;21.44;28.85;100877.56;5001705;28;20042;-58
2021/03/22 09:40:22;;;;;;;1.60;1.50;;;;;;;21.50;28.76;100873.34;4996501;28;20077;-59
2021/03/22 09:45:51;;;;;;;4.68;2.67;;;;;;;22.06;28.31;100884.38;4993705;28;20056;-56
2021/03/22 09:48:20;;;;;;;7.65;1.83;;;;;;;22.21;28.00;100880.03;4998807;28;20046;-58
2021/03/22 09:50:49;;;;;;;3.38;1.65;;;;;;;22.79;27.95;100877.16;4994010;28;20050;-57
2021/03/22 09:53:23;;;;;;;4.53;1.90;;;;;;;23.44;27.80;100875.22;5014272;28;20190;-57
2021/03/22 09:55:53;;;;;;;5.00;2.28;;;;;;;22.95;26.74;100872.44;5002855;28;20123;-56
2021/03/22 09:58:31;;;;;;;5.47;1.45;;;;;;;22.55;26.91;100877.97;5001184;28;20407;-56
2021/03/22 10:01:03;;;;;;;2.85;1.30;;;;;;;22.65;27.43;100871.81;5006324;28;20049;-57
2021/03/22 10:03:41;;;;;;;3.20;2.03;;;;;;;22.26;27.17;100879.84;4999806;28;20485;-57
2021/03/22 10:06:29;;;;;;;3.92;2.22;;;;;;;22.64;27.60;100870.16;5002142;28;20052;-56
2021/03/22 10:08:58;;;;;;;3.72;2.17;;;;;;;23.44;27.11;100874.38;5001464;28;20054;-56
2021/03/22 10:11:30;;;;;;;5.50;2.35;;;;;;;23.95;26.94;100871.84;5000615;28;20046;-57
2021/03/22 10:14:00;;;;;;;1.85;1.63;;;;;;;23.69;26.31;100870.28;5006861;28;20486;-58
2021/03/22 10:16:34;;;;;;;3.95;2.15;;;;;;;23.08;26.16;100867.59;5003614;28;20150;-59
2021/03/22 10:19:12;;;;;;;3.22;2.00;;;;;;;22.67;27.07;100869.47;5006646;28;20045;-73
2021/03/22 10:21:55;;;;;;;2.90;2.03;;;;;;;23.14;27.04;100878.34;4992406;28;20057;-70
2021/03/22 10:24:52;;;;;;;6.13;2.30;;;;;;;23.12;26.66;100871.38;4996026;28;20131;-63
2021/03/22 10:27:27;;;;;;;5.80;2.70;;;;;;;23.20;26.56;100850.44;5003137;28;20050;-56
2021/03/22 10:30:15;;;;;;;6.30;3.17;;;;;;;23.51;26.75;100869.72;5006562;28;20061;-55
2021/03/22 10:33:01;;;;;;;6.22;2.88;;;;;;;23.93;26.56;100859.97;5001277;28;20465;-58
2021/03/22 10:35:43;;;;;;;9.10;2.88;;;;;;;24.19;25.87;100865.19;5013644;28;20049;-58
2021/03/22 10:38:25;;;;;;;6.65;2.75;;;;;;;24.72;25.99;100868.69;5003923;28;20049;-66
2021/03/22 10:40:56;;;;;;;3.05;1.80;;;;;;;25.17;25.76;100871.03;5003949;28;20049;-64
2021/03/22 10:43:25;;;;;;;4.38;2.30;;;;;;;25.35;25.13;100871.44;5005158;28;20038;-65
2021/03/22 10:45:52;;;;;;;5.85;2.15;;;;;;;25.71;25.32;100867.34;4993545;28;20050;-67
2021/03/22 10:48:24;;;;;;;3.72;2.20;;;;;;;26.31;24.66;100883.25;5001754;28;20049;-64
2021/03/22 10:51:02;;;;;;;7.60;2.92;;;;;;;26.60;23.99;100873.19;4994678;28;20422;-65
2021/03/22 10:53:30;;;;;;;6.15;2.55;;;;;;;26.88;24.23;100876.53;4993457;28;20061;-67
2021/03/22 10:56:22;;;;;;;9.68;2.88;;;;;;;27.16;24.01;100866.78;4996968;28;20410;-67
2021/03/22 10:58:49;;;;;;;7.85;3.58;;;;;;;27.67;24.00;100872.00;5002123;28;20473;-56
2021/03/22 11:01:19;;;;;;;8.15;3.45;;;;;;;27.72;22.98;100870.81;5001908;28;20049;-58
2021/03/22 11:03:50;;;;;;;5.75;3.28;;;;;;;27.23;22.58;100866.06;5004319;28;20058;-56
2021/03/22 11:06:31;;;;;;;7.10;3.45;;;;;;;26.97;23.23;100867.66;5001854;28;20390;-58
2021/03/22 11:09:03;;;;;;;5.75;3.58;;;;;;;27.17;22.38;100862.69;5003342;28;20494;-57
2021/03/22 11:11:31;;;;;;;6.70;4.22;;;;;;;27.01;22.12;100874.31;5009976;28;20061;-58
2021/03/22 11:14:02;;;;;;;8.75;4.35;;;;;;;26.33;22.35;100869.41;5005654;28;20057;-61
2021/03/22 11:16:37;;;;;;;7.53;3.67;;;;;;;26.03;22.55;100864.34;5003476;28;20552;-61
2021/03/22 11:19:34;;;;;;;9.25;4.25;;;;;;;25.75;23.25;100856.78;5001744;28;20470;-61
2021/03/22 11:22:14;;;;;;;5.53;3.85;;;;;;;26.17;23.32;100867.47;4990106;28;20413;-63
2021/03/22 11:24:41;;;;;;;;;;;;;;;26.00;24.00;100859.38;4997664;28;20053;-57
2021/03/22 11:27:11;;;;;;;5.68;3.33;;;;;;;25.98;23.00;100850.31;4993706;28;19925;-56
2021/03/22 11:29:56;;;;;;;;;;;;;;;25.36;23.60;100844.50;5011076;28;20138;-57
2021/03/22 11:32:27;;;;;;;6.40;3.78;;;;;;;25.58;23.15;100847.84;5003625;28;19940;-59
2021/03/22 11:34:56;;;;;;;7.70;3.10;;;;;;;25.81;23.24;100840.16;4997366;28;20061;-58
2021/03/22 11:37:35;;;;;;;7.68;3.17;;;;;;;26.67;22.92;100834.03;5001906;28;20093;-57
2021/03/22 11:40:04;;;;;;;4.60;3.00;;;;;;;27.49;22.14;100834.47;5004307;28;20096;-57
2021/03/22 11:42:37;;;;;;;5.18;2.63;;;;;;;27.98;22.06;100835.50;5007004;28;20063;-55
2021/03/22 11:45:27;;;;;;;5.53;2.90;;;;;;;28.29;21.65;100825.59;5011160;28;20073;-58
2021/03/22 11:48:00;;;;;;;3.63;2.17;;;;;;;28.78;21.50;100824.41;5007785;28;20042;-56
2021/03/22 11:50:43;;;;;;;3.47;2.50;;;;;;;29.07;21.00;100824.66;5007568;28;20459;-54
2021/03/22 11:53:22;;;;;;;4.85;2.70;;;;;;;28.72;20.73;100826.00;5007619;28;20068;-58
2021/03/22 11:56:09;;;;;;;4.20;2.42;;;;;;;29.03;20.13;100819.69;5003246;28;20108;-57
2021/03/22 11:58:39;;;;;;;4.70;2.47;;;;;;;29.89;19.99;100819.31;5003309;28;20041;-57
2021/03/22 12:01:27;;;;;;;5.55;2.70;;;;;;;30.67;19.38;100807.09;5005366;28;20383;-57
2021/03/22 12:04:05;;;;;;;4.60;2.75;;;;;;;31.34;18.56;100805.38;4995262;28;20049;-58
2021/03/22 12:06:46;;;;;;;4.30;2.72;;;;;;;31.67;18.14;100818.44;5001187;28;20050;-57
2021/03/22 12:09:13;;;;;;;3.72;2.38;;;;;;;31.67;17.34;100809.78;5005546;28;20494;-55